sensor_id;sensor_type;location;lat;lon;timestamp;temperature;humidity
12746;DHT22;6437;53.686;10.030;2023-05-07T00:01:49;10.50;99.90
12746;DHT22;6437;53.686;10.030;2023-05-07T00:03:54;11.00;99.90
12746;DHT22;6437;53.686;10.030;2023-05-07T00:05:56;10.40;99.90
12746;DHT22;6437;53.686;10.030;2023-05-07T00:07:58;10.40;99.90
12746;DHT22;6437;53.686;10.030;2023-05-07T00:10:00;10.40;99.90
12746;DHT22;6437;53.686;10.030;2023-05-07T00:12:03;10.40;99.90
12746;DHT22;6437;53.686;10.030;2023-05-07T00:14:06;10.40;99.90
12746;DHT22;6437;53.686;10.030;2023-05-07T00:16:10;11.50;99.90
12746;DHT22;6437;53.686;10.030;2023-05-07T00:18:19;10.90;99.90
12746;DHT22;6437;53.686;10.030;2023-05-07T00:20:33;10.40;99.90
12746;DHT22;6437;53.686;10.030;2023-05-07T00:22:36;10.50;99.90
12746;DHT22;6437;53.686;10.030;2023-05-07T00:24:38;10.80;99.90
12746;DHT22;6437;53.686;10.030;2023-05-07T00:26:41;10.40;99.90
12746;DHT22;6437;53.686;10.030;2023-05-07T00:28:44;10.40;99.90
12746;DHT22;6437;53.686;10.030;2023-05-07T00:30:46;11.60;99.90
12746;DHT22;6437;53.686;10.030;2023-05-07T00:32:56;10.40;99.90
12746;DHT22;6437;53.686;10.030;2023-05-07T00:35:00;10.30;99.90
12746;DHT22;6437;53.686;10.030;2023-05-07T00:37:10;11.10;99.90
12746;DHT22;6437;53.686;10.030;2023-05-07T00:39:12;11.30;99.90
12746;DHT22;6437;53.686;10.030;2023-05-07T00:41:14;10.40;99.90
12746;DHT22;6437;53.686;10.030;2023-05-07T00:43:16;10.90;99.90
12746;DHT22;6437;53.686;10.030;2023-05-07T00:45:21;10.40;99.90
12746;DHT22;6437;53.686;10.030;2023-05-07T00:47:29;10.40;99.90
12746;DHT22;6437;53.686;10.030;2023-05-07T00:49:38;10.40;99.90
12746;DHT22;6437;53.686;10.030;2023-05-07T00:51:45;10.40;99.90
12746;DHT22;6437;53.686;10.030;2023-05-07T00:53:47;10.40;99.90
12746;DHT22;6437;53.686;10.030;2023-05-07T00:56:03;11.70;99.90
12746;DHT22;6437;53.686;10.030;2023-05-07T00:58:06;10.80;99.90
12746;DHT22;6437;53.686;10.030;2023-05-07T01:00:09;10.60;99.90
12746;DHT22;6437;53.686;10.030;2023-05-07T01:02:12;10.40;99.90
12746;DHT22;6437;53.686;10.030;2023-05-07T01:04:17;10.40;99.90
12746;DHT22;6437;53.686;10.030;2023-05-07T01:06:36;10.40;99.90
12746;DHT22;6437;53.686;10.030;2023-05-07T01:08:42;11.50;99.90
12746;DHT22;6437;53.686;10.030;2023-05-07T01:10:44;10.40;99.90
12746;DHT22;6437;53.686;10.030;2023-05-07T01:12:52;10.70;99.90
12746;DHT22;6437;53.686;10.030;2023-05-07T01:14:55;10.50;99.90
12746;DHT22;6437;53.686;10.030;2023-05-07T01:17:15;11.10;99.90
12746;DHT22;6437;53.686;10.030;2023-05-07T01:19:18;10.90;99.90
12746;DHT22;6437;53.686;10.030;2023-05-07T01:21:42;10.40;99.90
12746;DHT22;6437;53.686;10.030;2023-05-07T01:23:58;10.80;99.90
12746;DHT22;6437;53.686;10.030;2023-05-07T01:26:06;9.60;99.90
12746;DHT22;6437;53.686;10.030;2023-05-07T01:28:08;10.30;99.90
12746;DHT22;6437;53.686;10.030;2023-05-07T01:30:11;10.20;99.90
12746;DHT22;6437;53.686;10.030;2023-05-07T01:32:28;10.40;99.90
12746;DHT22;6437;53.686;10.030;2023-05-07T01:34:32;10.30;99.90
12746;DHT22;6437;53.686;10.030;2023-05-07T01:36:37;11.00;99.90
12746;DHT22;6437;53.686;10.030;2023-05-07T01:38:44;11.30;99.90
12746;DHT22;6437;53.686;10.030;2023-05-07T01:40:48;11.00;99.90
12746;DHT22;6437;53.686;10.030;2023-05-07T01:42:50;10.80;99.90
12746;DHT22;6437;53.686;10.030;2023-05-07T01:44:52;11.60;99.90
12746;DHT22;6437;53.686;10.030;2023-05-07T01:46:57;10.30;99.90
12746;DHT22;6437;53.686;10.030;2023-05-07T01:49:02;10.50;99.90
12746;DHT22;6437;53.686;10.030;2023-05-07T01:51:04;10.30;99.90
12746;DHT22;6437;53.686;10.030;2023-05-07T01:53:06;10.30;99.90
12746;DHT22;6437;53.686;10.030;2023-05-07T01:55:09;10.50;99.90
12746;DHT22;6437;53.686;10.030;2023-05-07T01:57:13;10.30;99.90
12746;DHT22;6437;53.686;10.030;2023-05-07T01:59:17;10.30;99.90
12746;DHT22;6437;53.686;10.030;2023-05-07T02:01:19;10.30;99.90
12746;DHT22;6437;53.686;10.030;2023-05-07T02:03:33;10.30;99.90
12746;DHT22;6437;53.686;10.030;2023-05-07T02:05:38;10.30;99.90
12746;DHT22;6437;53.686;10.030;2023-05-07T02:07:42;10.30;99.90
12746;DHT22;6437;53.686;10.030;2023-05-07T02:09:43;10.50;99.90
12746;DHT22;6437;53.686;10.030;2023-05-07T02:11:46;10.30;99.90
12746;DHT22;6437;53.686;10.030;2023-05-07T02:13:56;11.60;99.90
12746;DHT22;6437;53.686;10.030;2023-05-07T02:15:58;10.30;99.90
12746;DHT22;6437;53.686;10.030;2023-05-07T02:18:08;10.30;99.90
12746;DHT22;6437;53.686;10.030;2023-05-07T02:20:11;11.00;99.90
12746;DHT22;6437;53.686;10.030;2023-05-07T02:22:13;10.30;99.90
12746;DHT22;6437;53.686;10.030;2023-05-07T02:24:15;10.30;99.90
12746;DHT22;6437;53.686;10.030;2023-05-07T02:26:18;10.30;99.90
12746;DHT22;6437;53.686;10.030;2023-05-07T02:28:29;10.20;99.90
12746;DHT22;6437;53.686;10.030;2023-05-07T02:30:33;10.80;99.90
12746;DHT22;6437;53.686;10.030;2023-05-07T02:32:34;10.20;99.90
12746;DHT22;6437;53.686;10.030;2023-05-07T02:34:38;10.20;99.90
12746;DHT22;6437;53.686;10.030;2023-05-07T02:36:40;11.40;99.90
12746;DHT22;6437;53.686;10.030;2023-05-07T02:38:42;10.20;99.90
12746;DHT22;6437;53.686;10.030;2023-05-07T02:40:44;10.20;99.90
12746;DHT22;6437;53.686;10.030;2023-05-07T02:42:45;11.80;99.90
12746;DHT22;6437;53.686;10.030;2023-05-07T02:44:52;10.20;99.90
12746;DHT22;6437;53.686;10.030;2023-05-07T02:46:58;11.20;99.90
12746;DHT22;6437;53.686;10.030;2023-05-07T02:49:00;10.20;99.90
12746;DHT22;6437;53.686;10.030;2023-05-07T02:51:02;10.20;99.90
12746;DHT22;6437;53.686;10.030;2023-05-07T02:53:06;10.10;99.90
12746;DHT22;6437;53.686;10.030;2023-05-07T02:55:12;11.30;99.90
12746;DHT22;6437;53.686;10.030;2023-05-07T02:57:22;10.20;99.90
12746;DHT22;6437;53.686;10.030;2023-05-07T02:59:27;10.20;99.90
12746;DHT22;6437;53.686;10.030;2023-05-07T03:01:32;11.10;99.90
12746;DHT22;6437;53.686;10.030;2023-05-07T03:03:35;10.40;99.90
12746;DHT22;6437;53.686;10.030;2023-05-07T03:05:37;10.50;99.90
12746;DHT22;6437;53.686;10.030;2023-05-07T03:07:40;11.20;99.90
12746;DHT22;6437;53.686;10.030;2023-05-07T03:09:45;9.90;99.90
12746;DHT22;6437;53.686;10.030;2023-05-07T03:11:47;11.10;99.90
12746;DHT22;6437;53.686;10.030;2023-05-07T03:13:50;10.10;99.90
12746;DHT22;6437;53.686;10.030;2023-05-07T03:15:54;10.70;99.90
12746;DHT22;6437;53.686;10.030;2023-05-07T03:17:58;10.20;99.90
12746;DHT22;6437;53.686;10.030;2023-05-07T03:20:12;10.70;99.90
12746;DHT22;6437;53.686;10.030;2023-05-07T03:22:14;9.50;99.90
12746;DHT22;6437;53.686;10.030;2023-05-07T03:24:34;10.40;99.90
12746;DHT22;6437;53.686;10.030;2023-05-07T03:26:42;10.10;99.90
12746;DHT22;6437;53.686;10.030;2023-05-07T03:28:43;10.00;99.90
12746;DHT22;6437;53.686;10.030;2023-05-07T03:30:45;10.50;99.90
12746;DHT22;6437;53.686;10.030;2023-05-07T03:32:48;9.90;99.90
12746;DHT22;6437;53.686;10.030;2023-05-07T03:34:50;10.10;99.90
12746;DHT22;6437;53.686;10.030;2023-05-07T03:36:54;9.10;99.90
12746;DHT22;6437;53.686;10.030;2023-05-07T03:38:58;11.20;99.90
12746;DHT22;6437;53.686;10.030;2023-05-07T03:41:00;10.20;99.90
12746;DHT22;6437;53.686;10.030;2023-05-07T03:43:02;10.00;99.90
12746;DHT22;6437;53.686;10.030;2023-05-07T03:45:05;10.00;99.90
12746;DHT22;6437;53.686;10.030;2023-05-07T03:47:07;10.00;99.90
12746;DHT22;6437;53.686;10.030;2023-05-07T03:49:16;10.00;99.90
12746;DHT22;6437;53.686;10.030;2023-05-07T03:51:18;10.60;99.90
12746;DHT22;6437;53.686;10.030;2023-05-07T03:53:24;10.20;99.90
12746;DHT22;6437;53.686;10.030;2023-05-07T03:55:26;10.00;99.90
12746;DHT22;6437;53.686;10.030;2023-05-07T03:57:29;10.10;99.90
12746;DHT22;6437;53.686;10.030;2023-05-07T03:59:31;10.10;99.90
12746;DHT22;6437;53.686;10.030;2023-05-07T04:01:33;10.10;99.90
12746;DHT22;6437;53.686;10.030;2023-05-07T04:03:35;10.10;99.90
12746;DHT22;6437;53.686;10.030;2023-05-07T04:05:37;10.20;99.90
12746;DHT22;6437;53.686;10.030;2023-05-07T04:07:41;11.60;99.90
12746;DHT22;6437;53.686;10.030;2023-05-07T04:09:47;10.10;99.90
12746;DHT22;6437;53.686;10.030;2023-05-07T04:11:49;10.30;99.90
12746;DHT22;6437;53.686;10.030;2023-05-07T04:13:53;11.30;99.90
12746;DHT22;6437;53.686;10.030;2023-05-07T04:15:56;10.20;99.90
12746;DHT22;6437;53.686;10.030;2023-05-07T04:17:58;10.90;99.90
12746;DHT22;6437;53.686;10.030;2023-05-07T04:20:00;10.20;99.90
12746;DHT22;6437;53.686;10.030;2023-05-07T04:22:09;10.20;99.90
12746;DHT22;6437;53.686;10.030;2023-05-07T04:24:11;10.20;99.90
12746;DHT22;6437;53.686;10.030;2023-05-07T04:26:18;10.30;99.90
12746;DHT22;6437;53.686;10.030;2023-05-07T04:28:22;11.20;99.90
12746;DHT22;6437;53.686;10.030;2023-05-07T04:30:28;9.60;99.90
12746;DHT22;6437;53.686;10.030;2023-05-07T04:32:33;10.20;99.90
12746;DHT22;6437;53.686;10.030;2023-05-07T04:34:41;10.20;99.90
12746;DHT22;6437;53.686;10.030;2023-05-07T04:36:45;10.10;99.90
12746;DHT22;6437;53.686;10.030;2023-05-07T04:38:48;10.60;99.90
12746;DHT22;6437;53.686;10.030;2023-05-07T04:40:52;10.20;99.90
12746;DHT22;6437;53.686;10.030;2023-05-07T04:42:56;11.40;99.90
12746;DHT22;6437;53.686;10.030;2023-05-07T04:44:58;11.60;99.90
12746;DHT22;6437;53.686;10.030;2023-05-07T04:47:05;10.10;99.90
12746;DHT22;6437;53.686;10.030;2023-05-07T04:49:11;10.20;99.90
12746;DHT22;6437;53.686;10.030;2023-05-07T04:51:15;10.10;99.90
12746;DHT22;6437;53.686;10.030;2023-05-07T04:53:21;11.20;99.90
12746;DHT22;6437;53.686;10.030;2023-05-07T04:55:32;10.10;99.90
12746;DHT22;6437;53.686;10.030;2023-05-07T04:57:37;11.10;99.90
12746;DHT22;6437;53.686;10.030;2023-05-07T04:59:42;11.30;99.90
12746;DHT22;6437;53.686;10.030;2023-05-07T05:01:44;10.20;99.90
12746;DHT22;6437;53.686;10.030;2023-05-07T05:03:48;10.20;99.90
12746;DHT22;6437;53.686;10.030;2023-05-07T05:05:52;10.20;99.90
12746;DHT22;6437;53.686;10.030;2023-05-07T05:07:54;10.20;99.90
12746;DHT22;6437;53.686;10.030;2023-05-07T05:09:56;10.20;99.90
12746;DHT22;6437;53.686;10.030;2023-05-07T05:12:01;10.50;99.90
12746;DHT22;6437;53.686;10.030;2023-05-07T05:14:10;10.10;99.90
12746;DHT22;6437;53.686;10.030;2023-05-07T05:16:18;10.70;99.90
12746;DHT22;6437;53.686;10.030;2023-05-07T05:18:29;10.20;99.90
12746;DHT22;6437;53.686;10.030;2023-05-07T05:20:31;10.40;99.90
12746;DHT22;6437;53.686;10.030;2023-05-07T05:22:37;10.20;99.90
12746;DHT22;6437;53.686;10.030;2023-05-07T05:24:45;11.30;99.90
12746;DHT22;6437;53.686;10.030;2023-05-07T05:26:57;10.30;99.90
12746;DHT22;6437;53.686;10.030;2023-05-07T05:29:02;10.40;99.90
12746;DHT22;6437;53.686;10.030;2023-05-07T05:31:06;11.00;99.90
12746;DHT22;6437;53.686;10.030;2023-05-07T05:33:10;10.30;99.90
12746;DHT22;6437;53.686;10.030;2023-05-07T05:35:12;10.40;99.90
12746;DHT22;6437;53.686;10.030;2023-05-07T05:37:15;10.50;99.90
12746;DHT22;6437;53.686;10.030;2023-05-07T05:39:19;11.60;99.90
12746;DHT22;6437;53.686;10.030;2023-05-07T05:41:22;10.30;99.90
12746;DHT22;6437;53.686;10.030;2023-05-07T05:43:27;10.40;99.90
12746;DHT22;6437;53.686;10.030;2023-05-07T05:45:29;10.40;99.90
12746;DHT22;6437;53.686;10.030;2023-05-07T05:47:32;10.40;99.90
12746;DHT22;6437;53.686;10.030;2023-05-07T05:49:38;10.40;99.90
12746;DHT22;6437;53.686;10.030;2023-05-07T05:51:49;10.50;99.90
12746;DHT22;6437;53.686;10.030;2023-05-07T05:53:51;10.70;99.90
12746;DHT22;6437;53.686;10.030;2023-05-07T05:55:55;10.50;99.90
12746;DHT22;6437;53.686;10.030;2023-05-07T05:58:00;11.40;99.90
12746;DHT22;6437;53.686;10.030;2023-05-07T06:00:02;10.60;99.90
12746;DHT22;6437;53.686;10.030;2023-05-07T06:02:04;10.50;99.90
12746;DHT22;6437;53.686;10.030;2023-05-07T06:04:06;10.60;99.90
12746;DHT22;6437;53.686;10.030;2023-05-07T06:06:09;11.70;99.90
12746;DHT22;6437;53.686;10.030;2023-05-07T06:08:15;11.30;99.90
12746;DHT22;6437;53.686;10.030;2023-05-07T06:10:21;10.50;99.90
12746;DHT22;6437;53.686;10.030;2023-05-07T06:12:29;12.00;99.90
12746;DHT22;6437;53.686;10.030;2023-05-07T06:14:34;10.90;99.90
12746;DHT22;6437;53.686;10.030;2023-05-07T06:16:36;11.90;99.90
12746;DHT22;6437;53.686;10.030;2023-05-07T06:18:39;11.20;99.90
12746;DHT22;6437;53.686;10.030;2023-05-07T06:20:41;10.70;99.90
12746;DHT22;6437;53.686;10.030;2023-05-07T06:22:44;10.70;99.90
12746;DHT22;6437;53.686;10.030;2023-05-07T06:24:46;10.70;99.90
12746;DHT22;6437;53.686;10.030;2023-05-07T06:26:48;10.70;99.90
12746;DHT22;6437;53.686;10.030;2023-05-07T06:28:50;11.10;99.90
12746;DHT22;6437;53.686;10.030;2023-05-07T06:30:52;10.70;99.90
12746;DHT22;6437;53.686;10.030;2023-05-07T06:32:54;10.70;99.90
12746;DHT22;6437;53.686;10.030;2023-05-07T06:34:57;10.80;99.90
12746;DHT22;6437;53.686;10.030;2023-05-07T06:37:01;10.70;99.90
12746;DHT22;6437;53.686;10.030;2023-05-07T06:39:07;10.70;99.90
12746;DHT22;6437;53.686;10.030;2023-05-07T06:41:09;10.70;99.90
12746;DHT22;6437;53.686;10.030;2023-05-07T06:43:11;10.70;99.90
12746;DHT22;6437;53.686;10.030;2023-05-07T06:45:13;10.80;99.90
12746;DHT22;6437;53.686;10.030;2023-05-07T06:47:15;10.00;99.90
12746;DHT22;6437;53.686;10.030;2023-05-07T06:49:16;11.70;99.90
12746;DHT22;6437;53.686;10.030;2023-05-07T06:51:21;10.80;99.90
12746;DHT22;6437;53.686;10.030;2023-05-07T06:53:32;10.80;99.90
12746;DHT22;6437;53.686;10.030;2023-05-07T06:55:46;12.40;99.90
12746;DHT22;6437;53.686;10.030;2023-05-07T06:57:58;12.20;99.90
12746;DHT22;6437;53.686;10.030;2023-05-07T07:00:04;11.20;99.90
12746;DHT22;6437;53.686;10.030;2023-05-07T07:02:11;10.80;99.90
12746;DHT22;6437;53.686;10.030;2023-05-07T07:04:15;10.90;99.90
12746;DHT22;6437;53.686;10.030;2023-05-07T07:08:15;10.90;99.90
12746;DHT22;6437;53.686;10.030;2023-05-07T07:10:01;11.00;99.90
12746;DHT22;6437;53.686;10.030;2023-05-07T07:12:06;10.90;99.90
12746;DHT22;6437;53.686;10.030;2023-05-07T07:14:10;10.90;99.90
12746;DHT22;6437;53.686;10.030;2023-05-07T07:16:12;10.90;99.90
12746;DHT22;6437;53.686;10.030;2023-05-07T07:18:14;10.90;99.90
12746;DHT22;6437;53.686;10.030;2023-05-07T07:20:16;11.00;99.90
12746;DHT22;6437;53.686;10.030;2023-05-07T07:22:18;11.00;99.90
12746;DHT22;6437;53.686;10.030;2023-05-07T07:24:19;11.00;99.90
12746;DHT22;6437;53.686;10.030;2023-05-07T07:26:21;11.00;99.90
12746;DHT22;6437;53.686;10.030;2023-05-07T07:28:25;11.00;99.90
12746;DHT22;6437;53.686;10.030;2023-05-07T07:30:27;11.10;99.90
12746;DHT22;6437;53.686;10.030;2023-05-07T07:32:28;11.10;99.90
12746;DHT22;6437;53.686;10.030;2023-05-07T07:34:30;11.10;99.90
12746;DHT22;6437;53.686;10.030;2023-05-07T07:36:32;11.20;99.90
12746;DHT22;6437;53.686;10.030;2023-05-07T07:38:34;11.20;99.90
12746;DHT22;6437;53.686;10.030;2023-05-07T07:40:35;11.20;99.90
12746;DHT22;6437;53.686;10.030;2023-05-07T07:42:37;11.20;99.90
12746;DHT22;6437;53.686;10.030;2023-05-07T07:44:40;11.20;99.90
12746;DHT22;6437;53.686;10.030;2023-05-07T07:46:42;11.20;99.90
12746;DHT22;6437;53.686;10.030;2023-05-07T07:48:44;11.30;99.90
12746;DHT22;6437;53.686;10.030;2023-05-07T07:50:48;11.30;99.90
12746;DHT22;6437;53.686;10.030;2023-05-07T07:52:50;11.30;99.90
12746;DHT22;6437;53.686;10.030;2023-05-07T07:54:52;11.30;99.90
12746;DHT22;6437;53.686;10.030;2023-05-07T07:56:54;11.30;99.90
12746;DHT22;6437;53.686;10.030;2023-05-07T07:58:55;11.30;99.90
12746;DHT22;6437;53.686;10.030;2023-05-07T08:00:59;11.40;99.90
12746;DHT22;6437;53.686;10.030;2023-05-07T08:03:00;11.60;99.90
12746;DHT22;6437;53.686;10.030;2023-05-07T08:05:04;11.40;99.90
12746;DHT22;6437;53.686;10.030;2023-05-07T08:07:05;11.40;99.90
12746;DHT22;6437;53.686;10.030;2023-05-07T08:09:07;11.50;99.90
12746;DHT22;6437;53.686;10.030;2023-05-07T08:11:09;11.50;99.90
12746;DHT22;6437;53.686;10.030;2023-05-07T08:13:11;11.50;99.90
12746;DHT22;6437;53.686;10.030;2023-05-07T08:15:15;11.50;99.90
12746;DHT22;6437;53.686;10.030;2023-05-07T08:17:18;11.50;99.90
12746;DHT22;6437;53.686;10.030;2023-05-07T08:19:25;11.50;99.90
12746;DHT22;6437;53.686;10.030;2023-05-07T08:21:30;11.50;99.90
12746;DHT22;6437;53.686;10.030;2023-05-07T08:23:32;11.60;99.90
12746;DHT22;6437;53.686;10.030;2023-05-07T08:25:35;11.60;99.90
12746;DHT22;6437;53.686;10.030;2023-05-07T08:27:37;11.60;99.90
12746;DHT22;6437;53.686;10.030;2023-05-07T08:29:39;11.60;99.90
12746;DHT22;6437;53.686;10.030;2023-05-07T08:31:41;11.60;99.90
12746;DHT22;6437;53.686;10.030;2023-05-07T08:33:44;11.60;99.90
12746;DHT22;6437;53.686;10.030;2023-05-07T08:35:46;11.70;99.90
12746;DHT22;6437;53.686;10.030;2023-05-07T08:37:48;11.70;99.90
12746;DHT22;6437;53.686;10.030;2023-05-07T08:39:50;11.70;99.90
12746;DHT22;6437;53.686;10.030;2023-05-07T08:41:54;11.80;99.90
12746;DHT22;6437;53.686;10.030;2023-05-07T08:43:58;11.80;99.90
12746;DHT22;6437;53.686;10.030;2023-05-07T08:46:01;11.80;99.90
12746;DHT22;6437;53.686;10.030;2023-05-07T08:48:16;11.80;99.90
12746;DHT22;6437;53.686;10.030;2023-05-07T08:50:20;11.80;99.90
12746;DHT22;6437;53.686;10.030;2023-05-07T08:52:22;11.80;99.90
12746;DHT22;6437;53.686;10.030;2023-05-07T08:54:27;11.80;99.90
12746;DHT22;6437;53.686;10.030;2023-05-07T08:56:29;11.80;99.90
12746;DHT22;6437;53.686;10.030;2023-05-07T08:58:31;11.80;99.90
12746;DHT22;6437;53.686;10.030;2023-05-07T09:00:33;11.80;99.90
12746;DHT22;6437;53.686;10.030;2023-05-07T09:02:36;11.80;99.90
12746;DHT22;6437;53.686;10.030;2023-05-07T09:04:38;11.80;99.90
12746;DHT22;6437;53.686;10.030;2023-05-07T09:06:41;11.80;99.90
12746;DHT22;6437;53.686;10.030;2023-05-07T09:08:49;11.70;99.90
12746;DHT22;6437;53.686;10.030;2023-05-07T09:10:52;11.70;99.90
12746;DHT22;6437;53.686;10.030;2023-05-07T09:12:55;11.80;99.90
12746;DHT22;6437;53.686;10.030;2023-05-07T09:14:57;11.70;99.90
12746;DHT22;6437;53.686;10.030;2023-05-07T09:16:58;11.70;99.90
12746;DHT22;6437;53.686;10.030;2023-05-07T09:19:00;11.80;99.90
12746;DHT22;6437;53.686;10.030;2023-05-07T09:21:02;11.80;99.90
12746;DHT22;6437;53.686;10.030;2023-05-07T09:23:06;11.80;99.90
12746;DHT22;6437;53.686;10.030;2023-05-07T09:25:08;11.80;99.90
12746;DHT22;6437;53.686;10.030;2023-05-07T09:27:10;11.80;99.90
12746;DHT22;6437;53.686;10.030;2023-05-07T09:29:15;11.90;99.90
12746;DHT22;6437;53.686;10.030;2023-05-07T09:31:17;11.90;99.90
12746;DHT22;6437;53.686;10.030;2023-05-07T09:33:19;11.90;99.90
12746;DHT22;6437;53.686;10.030;2023-05-07T09:35:21;12.00;99.90
12746;DHT22;6437;53.686;10.030;2023-05-07T09:37:26;12.00;99.90
12746;DHT22;6437;53.686;10.030;2023-05-07T09:39:40;12.20;99.90
12746;DHT22;6437;53.686;10.030;2023-05-07T09:41:46;12.10;99.90
12746;DHT22;6437;53.686;10.030;2023-05-07T09:43:54;12.10;99.90
12746;DHT22;6437;53.686;10.030;2023-05-07T09:45:56;12.10;99.90
12746;DHT22;6437;53.686;10.030;2023-05-07T09:47:59;12.20;99.90
12746;DHT22;6437;53.686;10.030;2023-05-07T09:50:04;12.20;99.90
12746;DHT22;6437;53.686;10.030;2023-05-07T09:52:07;12.20;99.90
12746;DHT22;6437;53.686;10.030;2023-05-07T09:54:10;12.30;99.90
12746;DHT22;6437;53.686;10.030;2023-05-07T09:56:14;12.30;99.90
12746;DHT22;6437;53.686;10.030;2023-05-07T09:58:18;12.80;99.90
12746;DHT22;6437;53.686;10.030;2023-05-07T10:00:21;12.30;99.90
12746;DHT22;6437;53.686;10.030;2023-05-07T10:02:23;12.30;99.90
12746;DHT22;6437;53.686;10.030;2023-05-07T10:04:27;12.40;99.90
12746;DHT22;6437;53.686;10.030;2023-05-07T10:06:30;12.40;99.90
12746;DHT22;6437;53.686;10.030;2023-05-07T10:08:32;12.40;99.90
12746;DHT22;6437;53.686;10.030;2023-05-07T10:10:34;12.40;99.90
12746;DHT22;6437;53.686;10.030;2023-05-07T10:12:37;12.50;99.90
12746;DHT22;6437;53.686;10.030;2023-05-07T10:14:41;12.50;99.90
12746;DHT22;6437;53.686;10.030;2023-05-07T10:16:43;12.50;99.90
12746;DHT22;6437;53.686;10.030;2023-05-07T10:18:46;12.10;99.90
12746;DHT22;6437;53.686;10.030;2023-05-07T10:20:51;12.50;99.90
12746;DHT22;6437;53.686;10.030;2023-05-07T10:22:56;12.60;99.90
12746;DHT22;6437;53.686;10.030;2023-05-07T10:24:59;12.60;99.90
12746;DHT22;6437;53.686;10.030;2023-05-07T10:27:07;12.60;99.90
12746;DHT22;6437;53.686;10.030;2023-05-07T10:29:14;12.70;99.90
12746;DHT22;6437;53.686;10.030;2023-05-07T10:31:34;12.70;99.90
12746;DHT22;6437;53.686;10.030;2023-05-07T10:33:39;12.70;99.90
12746;DHT22;6437;53.686;10.030;2023-05-07T10:35:42;12.70;99.90
12746;DHT22;6437;53.686;10.030;2023-05-07T10:37:45;12.80;99.90
12746;DHT22;6437;53.686;10.030;2023-05-07T10:39:47;12.80;99.90
12746;DHT22;6437;53.686;10.030;2023-05-07T10:41:49;12.80;99.90
12746;DHT22;6437;53.686;10.030;2023-05-07T10:43:51;12.90;99.90
12746;DHT22;6437;53.686;10.030;2023-05-07T10:46:14;12.90;99.90
12746;DHT22;6437;53.686;10.030;2023-05-07T10:48:17;13.00;99.90
12746;DHT22;6437;53.686;10.030;2023-05-07T10:50:22;13.00;99.90
12746;DHT22;6437;53.686;10.030;2023-05-07T10:52:30;13.10;99.90
12746;DHT22;6437;53.686;10.030;2023-05-07T10:54:31;13.10;99.90
12746;DHT22;6437;53.686;10.030;2023-05-07T10:56:34;13.20;99.90
12746;DHT22;6437;53.686;10.030;2023-05-07T10:58:36;13.30;99.90
12746;DHT22;6437;53.686;10.030;2023-05-07T11:00:41;13.30;99.90
12746;DHT22;6437;53.686;10.030;2023-05-07T11:03:06;13.40;99.90
12746;DHT22;6437;53.686;10.030;2023-05-07T11:05:20;13.40;99.90
12746;DHT22;6437;53.686;10.030;2023-05-07T11:07:31;13.50;99.90
12746;DHT22;6437;53.686;10.030;2023-05-07T11:09:54;13.50;99.90
12746;DHT22;6437;53.686;10.030;2023-05-07T11:11:56;13.60;99.90
12746;DHT22;6437;53.686;10.030;2023-05-07T11:13:58;13.70;99.90
12746;DHT22;6437;53.686;10.030;2023-05-07T11:16:00;13.70;99.90
12746;DHT22;6437;53.686;10.030;2023-05-07T11:18:02;13.80;99.90
12746;DHT22;6437;53.686;10.030;2023-05-07T11:20:06;13.80;99.90
12746;DHT22;6437;53.686;10.030;2023-05-07T11:22:36;13.80;99.90
12746;DHT22;6437;53.686;10.030;2023-05-07T11:24:40;13.80;99.90
12746;DHT22;6437;53.686;10.030;2023-05-07T11:26:46;13.90;99.90
12746;DHT22;6437;53.686;10.030;2023-05-07T11:28:59;14.00;99.90
12746;DHT22;6437;53.686;10.030;2023-05-07T11:31:09;14.10;99.90
12746;DHT22;6437;53.686;10.030;2023-05-07T11:33:11;14.10;99.90
12746;DHT22;6437;53.686;10.030;2023-05-07T11:35:15;14.10;99.90
12746;DHT22;6437;53.686;10.030;2023-05-07T11:37:19;14.10;99.90
12746;DHT22;6437;53.686;10.030;2023-05-07T11:39:28;14.20;99.90
12746;DHT22;6437;53.686;10.030;2023-05-07T11:41:35;14.20;99.90
12746;DHT22;6437;53.686;10.030;2023-05-07T11:43:38;14.30;99.90
12746;DHT22;6437;53.686;10.030;2023-05-07T11:45:40;14.30;99.90
12746;DHT22;6437;53.686;10.030;2023-05-07T11:47:42;14.40;99.90
12746;DHT22;6437;53.686;10.030;2023-05-07T11:49:45;14.40;99.90
12746;DHT22;6437;53.686;10.030;2023-05-07T11:51:49;14.50;99.90
12746;DHT22;6437;53.686;10.030;2023-05-07T11:53:51;14.60;99.90
12746;DHT22;6437;53.686;10.030;2023-05-07T11:55:54;14.60;99.90
12746;DHT22;6437;53.686;10.030;2023-05-07T11:57:56;14.70;99.90
12746;DHT22;6437;53.686;10.030;2023-05-07T11:59:59;14.80;99.90
12746;DHT22;6437;53.686;10.030;2023-05-07T12:02:02;14.80;99.90
12746;DHT22;6437;53.686;10.030;2023-05-07T12:04:04;14.80;99.90
12746;DHT22;6437;53.686;10.030;2023-05-07T12:06:07;14.90;99.90
12746;DHT22;6437;53.686;10.030;2023-05-07T12:08:13;14.90;99.90
12746;DHT22;6437;53.686;10.030;2023-05-07T12:10:15;14.90;99.90
12746;DHT22;6437;53.686;10.030;2023-05-07T12:12:17;14.90;99.90
12746;DHT22;6437;53.686;10.030;2023-05-07T12:14:19;15.00;99.90
12746;DHT22;6437;53.686;10.030;2023-05-07T12:16:21;15.00;99.90
12746;DHT22;6437;53.686;10.030;2023-05-07T12:18:23;15.10;99.90
12746;DHT22;6437;53.686;10.030;2023-05-07T12:20:26;15.10;99.90
12746;DHT22;6437;53.686;10.030;2023-05-07T12:22:29;15.20;99.90
12746;DHT22;6437;53.686;10.030;2023-05-07T12:24:43;15.10;99.90
12746;DHT22;6437;53.686;10.030;2023-05-07T12:26:45;15.30;99.90
12746;DHT22;6437;53.686;10.030;2023-05-07T12:28:47;15.30;99.90
12746;DHT22;6437;53.686;10.030;2023-05-07T12:30:50;15.20;99.90
12746;DHT22;6437;53.686;10.030;2023-05-07T12:32:52;15.30;99.90
12746;DHT22;6437;53.686;10.030;2023-05-07T12:34:54;15.40;99.90
12746;DHT22;6437;53.686;10.030;2023-05-07T12:36:56;15.40;99.90
12746;DHT22;6437;53.686;10.030;2023-05-07T12:38:59;15.50;99.90
12746;DHT22;6437;53.686;10.030;2023-05-07T12:41:02;15.50;99.90
12746;DHT22;6437;53.686;10.030;2023-05-07T12:43:04;15.60;99.90
12746;DHT22;6437;53.686;10.030;2023-05-07T12:45:09;15.60;99.90
12746;DHT22;6437;53.686;10.030;2023-05-07T12:47:11;15.60;99.90
12746;DHT22;6437;53.686;10.030;2023-05-07T12:49:13;15.60;99.90
12746;DHT22;6437;53.686;10.030;2023-05-07T12:51:15;15.70;99.90
12746;DHT22;6437;53.686;10.030;2023-05-07T12:53:20;15.70;99.90
12746;DHT22;6437;53.686;10.030;2023-05-07T12:55:22;15.70;99.90
12746;DHT22;6437;53.686;10.030;2023-05-07T12:57:26;15.70;99.90
12746;DHT22;6437;53.686;10.030;2023-05-07T12:59:32;15.70;99.90
12746;DHT22;6437;53.686;10.030;2023-05-07T13:01:34;15.70;99.90
12746;DHT22;6437;53.686;10.030;2023-05-07T13:03:37;15.70;99.90
12746;DHT22;6437;53.686;10.030;2023-05-07T13:05:39;15.70;99.90
12746;DHT22;6437;53.686;10.030;2023-05-07T13:07:41;15.80;99.90